Time;durP1;ratioP1;P1;durP2;ratioP2;P2;SDS_P1;SDS_P2;PMS_P1;PMS_P2;Temp;Humidity;BMP_temperature;BMP_pressure;BME280_temperature;BME280_humidity;BME280_pressure;Samples;Min_cycle;Max_cycle;Signal;HPM_P1;HPM_P2
2023/03/24 00:02:06;;;;;;;3.95;0.90;;;;;;;19.07;49.14;99777.22;4952840;28;20081;-65
2023/03/24 00:04:32;;;;;;;1.63;1.40;;;;;;;19.10;49.79;99774.91;4951993;28;20036;-65
2023/03/24 00:07:00;;;;;;;1.63;0.60;;;;;;;19.11;49.23;99782.03;4953224;29;20036;-66
2023/03/24 00:09:28;;;;;;;1.40;0.95;;;;;;;19.12;49.35;99772.81;4953975;28;20047;-67
2023/03/24 00:11:54;;;;;;;2.30;0.80;;;;;;;19.15;49.56;99777.03;4952643;28;20040;-68
2023/03/24 00:14:20;;;;;;;1.75;0.88;;;;;;;19.13;49.39;99779.94;4954210;28;20036;-68
2023/03/24 00:16:46;;;;;;;1.33;0.70;;;;;;;19.11;49.47;99763.03;4936678;28;20088;-68
2023/03/24 00:19:14;;;;;;;1.17;0.93;;;;;;;19.07;49.63;99759.06;4954331;28;20158;-68
2023/03/24 00:21:41;;;;;;;2.15;0.90;;;;;;;19.02;50.19;99755.28;4937194;29;20038;-68
2023/03/24 00:24:07;;;;;;;1.30;0.68;;;;;;;18.96;50.04;99756.13;4952746;28;20035;-68
2023/03/24 00:26:37;;;;;;;1.48;0.75;;;;;;;18.90;50.17;99757.81;4936600;28;20114;-69
2023/03/24 00:29:04;;;;;;;0.60;0.50;;;;;;;18.87;49.87;99751.97;4936256;28;20054;-68
2023/03/24 00:31:29;;;;;;;2.47;1.05;;;;;;;18.86;50.17;99755.72;4935309;28;20042;-68
2023/03/24 00:33:55;;;;;;;4.97;0.90;;;;;;;18.83;50.19;99746.13;4936808;29;20394;-67
2023/03/24 00:36:25;;;;;;;1.00;0.93;;;;;;;18.81;50.43;99750.94;4952487;28;20063;-67
2023/03/24 00:38:52;;;;;;;4.07;1.08;;;;;;;18.82;50.62;99749.88;4936495;29;20042;-68
2023/03/24 00:41:18;;;;;;;4.47;1.63;;;;;;;18.80;50.50;99746.53;4952510;28;20039;-68
2023/03/24 00:43:45;;;;;;;1.45;0.98;;;;;;;18.77;50.63;99735.25;4936382;28;20166;-67
2023/03/24 00:46:12;;;;;;;1.33;0.80;;;;;;;18.78;50.45;99736.94;4936579;29;20429;-67
2023/03/24 00:48:40;;;;;;;1.27;0.75;;;;;;;18.78;50.53;99726.94;4936291;29;20031;-67
2023/03/24 00:51:09;;;;;;;1.23;0.75;;;;;;;18.78;51.36;99721.50;4952169;28;20518;-68
2023/03/24 00:53:36;;;;;;;1.92;1.00;;;;;;;18.78;50.82;99721.50;4951985;28;20039;-68
2023/03/24 00:56:02;;;;;;;1.42;1.00;;;;;;;18.80;51.01;99705.84;4951953;28;20122;-68
2023/03/24 00:58:28;;;;;;;3.72;0.90;;;;;;;18.80;50.60;99708.56;4952039;28;20082;-68
2023/03/24 01:00:55;;;;;;;2.67;1.10;;;;;;;18.83;50.98;99705.41;4952665;28;20502;-68
2023/03/24 01:03:25;;;;;;;1.45;1.15;;;;;;;18.84;51.30;99688.09;4936163;28;20039;-67
2023/03/24 01:05:53;;;;;;;1.30;0.90;;;;;;;18.79;50.82;99690.59;4936507;28;20084;-66
2023/03/24 01:08:19;;;;;;;4.03;1.05;;;;;;;18.73;50.80;99713.16;4936453;28;20093;-66
2023/03/24 01:10:52;;;;;;;1.65;0.80;;;;;;;18.71;50.85;99687.25;4951823;28;20044;-66
2023/03/24 01:13:23;;;;;;;1.98;0.90;;;;;;;18.70;51.69;99681.03;4952356;29;20475;-69
2023/03/24 01:15:49;;;;;;;1.83;0.90;;;;;;;18.70;51.44;99681.03;4951723;28;20043;-66
2023/03/24 01:18:15;;;;;;;3.95;1.05;;;;;;;18.69;51.54;99679.34;4935804;28;20062;-68
2023/03/24 01:20:44;;;;;;;3.47;1.35;;;;;;;18.68;51.49;99674.94;4951913;28;20059;-68
2023/03/24 01:23:11;;;;;;;3.65;1.25;;;;;;;18.70;51.65;99672.03;4920800;28;20051;-67
2023/03/24 01:25:37;;;;;;;1.38;0.95;;;;;;;18.64;52.02;99660.16;4951765;28;20038;-65
2023/03/24 01:28:03;;;;;;;2.00;0.95;;;;;;;18.68;51.83;99658.66;4968046;28;20035;-64
2023/03/24 01:30:30;;;;;;;1.58;1.13;;;;;;;18.68;51.77;99661.38;4951664;28;20033;-65
2023/03/24 01:32:56;;;;;;;1.95;1.13;;;;;;;18.69;51.86;99646.78;4951752;28;20036;-66
2023/03/24 01:35:24;;;;;;;2.53;1.30;;;;;;;18.69;51.53;99646.78;4952056;28;20035;-67
2023/03/24 01:37:50;;;;;;;3.15;1.17;;;;;;;18.68;51.45;99645.09;4951634;28;20043;-67
2023/03/24 01:40:20;;;;;;;2.33;0.85;;;;;;;18.71;52.30;99643.84;4935967;28;20031;-66
2023/03/24 01:42:45;;;;;;;1.40;1.23;;;;;;;18.71;51.76;99639.25;4935481;29;20042;-66
2023/03/24 01:45:39;;;;;;;2.00;1.33;;;;;;;18.72;52.21;99640.94;4951279;28;20039;-65
2023/03/24 01:48:14;;;;;;;1.45;1.27;;;;;;;18.67;52.25;99627.19;4952634;28;20173;-65
2023/03/24 01:50:41;;;;;;;2.50;1.33;;;;;;;18.72;51.94;99616.53;4951430;28;20039;-65
2023/03/24 01:53:07;;;;;;;2.70;1.15;;;;;;;18.72;52.56;99624.66;4951315;28;20032;-64
2023/03/24 01:55:33;;;;;;;2.15;1.20;;;;;;;18.74;51.76;99630.69;4935274;28;20027;-64
2023/03/24 01:58:00;;;;;;;1.50;1.02;;;;;;;18.75;52.09;99624.25;4935804;29;20023;-65
2023/03/24 02:00:26;;;;;;;2.35;0.95;;;;;;;18.76;52.01;99627.78;4952048;28;20418;-64
2023/03/24 02:02:57;;;;;;;1.13;0.73;;;;;;;18.80;52.15;99626.31;4935097;28;20095;-64
2023/03/24 02:05:25;;;;;;;1.77;1.15;;;;;;;18.83;52.32;99610.44;4951390;28;20053;-64
2023/03/24 02:07:54;;;;;;;3.08;1.50;;;;;;;18.85;52.29;99607.50;4935140;28;20077;-64
2023/03/24 02:10:21;;;;;;;1.80;1.20;;;;;;;18.87;51.91;99614.38;4951266;28;20046;-66
2023/03/24 02:12:47;;;;;;;2.60;1.00;;;;;;;18.89;51.96;99608.75;4951040;28;20032;-65
2023/03/24 02:15:14;;;;;;;3.25;2.05;;;;;;;18.92;52.16;99608.34;4950973;28;20113;-66
2023/03/24 02:17:45;;;;;;;2.90;1.15;;;;;;;18.95;51.91;99595.19;4934781;28;20487;-65
2023/03/24 02:20:35;;;;;;;3.83;1.58;;;;;;;18.96;51.95;99602.25;4950965;28;20039;-67
2023/03/24 02:23:22;;;;;;;1.67;1.08;;;;;;;19.01;51.84;99593.50;4941317;28;20043;-65
2023/03/24 02:25:51;;;;;;;2.42;1.35;;;;;;;19.04;52.05;99593.88;4931025;28;20115;-65
2023/03/24 02:28:28;;;;;;;1.38;0.93;;;;;;;19.07;51.76;99612.47;4932942;29;20043;-65
2023/03/24 02:30:56;;;;;;;3.78;1.25;;;;;;;19.08;51.85;99608.72;4931963;29;20043;-65
2023/03/24 02:34:04;;;;;;;1.55;1.45;;;;;;;19.11;51.90;99597.44;4931532;28;20518;-66
2023/03/24 02:36:57;;;;;;;2.00;1.23;;;;;;;19.14;51.75;99602.44;4937824;28;20127;-64
2023/03/24 02:39:37;;;;;;;1.63;1.20;;;;;;;19.21;51.90;99596.16;4918221;28;20043;-65
2023/03/24 02:42:09;;;;;;;2.08;1.02;;;;;;;19.26;51.29;99609.91;4932841;28;20046;-64
2023/03/24 02:45:16;;;;;;;1.17;0.88;;;;;;;19.28;51.59;99603.22;4931473;28;20066;-64
2023/03/24 02:48:18;;;;;;;1.75;1.20;;;;;;;19.34;51.38;99604.22;4934220;28;20039;-63
2023/03/24 02:50:51;;;;;;;3.75;1.05;;;;;;;19.35;51.71;99603.16;4932772;28;20089;-64
2023/03/24 02:53:30;;;;;;;4.75;1.77;;;;;;;19.41;51.40;99607.75;4931427;28;20034;-64
2023/03/24 02:56:06;;;;;;;6.13;1.20;;;;;;;19.45;51.24;99609.84;4932074;28;20035;-63
2023/03/24 02:58:39;;;;;;;3.80;1.10;;;;;;;19.50;51.38;99606.47;4931272;28;20032;-63
2023/03/24 03:01:30;;;;;;;3.92;1.05;;;;;;;19.57;50.95;99599.13;4931645;29;20028;-63
2023/03/24 03:03:58;;;;;;;0.73;0.73;;;;;;;19.66;50.66;99612.22;4932798;28;20047;-64
2023/03/24 03:06:30;;;;;;;2.05;1.70;;;;;;;19.72;50.29;99611.38;4931335;28;20036;-64
2023/03/24 03:08:58;;;;;;;2.08;0.95;;;;;;;19.77;50.69;99613.41;4932558;28;20028;-64
2023/03/24 03:11:23;;;;;;;6.72;1.38;;;;;;;19.82;50.55;99610.88;4930994;28;20032;-63
2023/03/24 03:14:47;;;;;;;3.72;1.35;;;;;;;19.82;50.64;99613.59;4932110;28;20038;-63
2023/03/24 03:17:19;;;;;;;2.83;1.63;;;;;;;19.82;50.68;99615.50;4952050;28;20049;-64
2023/03/24 03:19:57;;;;;;;2.38;1.40;;;;;;;19.82;50.15;99626.38;4931150;28;20069;-64
2023/03/24 03:22:30;;;;;;;1.42;1.33;;;;;;;19.77;50.85;99625.13;4947376;28;20032;-64
2023/03/24 03:24:56;;;;;;;;;;;;;;;19.77;50.70;99643.31;4947691;29;20048;-63
2023/03/24 03:27:28;;;;;;;1.77;1.08;;;;;;;19.69;50.83;99640.84;4915577;28;19919;-63
2023/03/24 03:29:59;;;;;;;2.22;1.42;;;;;;;19.65;50.24;99643.16;4914921;29;20048;-64
2023/03/24 03:32:28;;;;;;;1.40;1.20;;;;;;;19.65;50.61;99636.91;4930935;28;20032;-63
2023/03/24 03:34:56;;;;;;;2.33;1.27;;;;;;;19.61;50.84;99649.25;4930804;28;20036;-64
2023/03/24 03:37:26;;;;;;;1.15;0.88;;;;;;;19.58;50.62;99641.53;4932459;29;20103;-64
2023/03/24 03:39:57;;;;;;;1.30;0.88;;;;;;;19.55;51.19;99652.84;4917801;28;20052;-65
2023/03/24 03:42:22;;;;;;;1.95;1.05;;;;;;;19.51;50.65;99668.75;4918537;28;20055;-65
2023/03/24 03:44:48;;;;;;;1.40;0.98;;;;;;;19.50;51.16;99677.09;4918034;28;20403;-65
2023/03/24 03:47:14;;;;;;;0.60;0.55;;;;;;;19.51;51.07;99678.78;4950207;28;20047;-63
2023/03/24 03:49:40;;;;;;;4.47;1.13;;;;;;;19.48;50.57;99680.03;4934799;28;20020;-64
2023/03/24 03:52:05;;;;;;;1.63;0.65;;;;;;;19.49;50.49;99680.84;4935902;28;20035;-63
2023/03/24 03:54:32;;;;;;;2.33;0.52;;;;;;;19.49;50.47;99678.13;4936000;28;20047;-64
2023/03/24 03:56:58;;;;;;;2.10;0.75;;;;;;;19.49;51.03;99683.56;4935003;28;20043;-63
2023/03/24 03:59:32;;;;;;;2.45;0.93;;;;;;;19.51;50.79;99692.38;4934039;29;20039;-63
2023/03/24 04:02:11;;;;;;;2.13;0.85;;;;;;;19.50;50.69;99696.13;4933785;28;20036;-63
2023/03/24 04:04:59;;;;;;;1.02;0.60;;;;;;;19.50;50.48;99709.69;4933563;28;20578;-63
2023/03/24 04:07:42;;;;;;;1.83;0.77;;;;;;;19.50;50.49;99712.41;4933781;28;20036;-64
2023/03/24 04:10:13;;;;;;;1.42;0.82;;;;;;;19.47;50.70;99729.97;4935185;29;20067;-63
2023/03/24 04:12:45;;;;;;;2.95;1.00;;;;;;;19.45;51.05;99742.09;4933699;28;20051;-63
2023/03/24 04:15:44;;;;;;;1.85;1.13;;;;;;;19.47;50.31;99753.59;4941285;28;20042;-63
2023/03/24 04:18:28;;;;;;;1.95;0.88;;;;;;;19.45;50.60;99766.56;4952638;28;20089;-63
2023/03/24 04:21:11;;;;;;;2.80;1.23;;;;;;;19.47;50.44;99775.31;4952619;28;20027;-63
2023/03/24 04:23:57;;;;;;;1.70;0.77;;;;;;;19.42;49.98;99783.28;4937142;28;20066;-63
2023/03/24 04:26:28;;;;;;;1.75;0.70;;;;;;;19.29;49.85;99772.41;4952536;28;20050;-63
2023/03/24 04:29:18;;;;;;;2.60;0.25;;;;;;;19.24;49.44;99802.06;4952364;28;20399;-63
2023/03/24 04:31:52;;;;;;;1.70;0.30;;;;;;;19.15;49.66;99810.41;4952204;28;20119;-63
2023/03/24 04:34:19;;;;;;;1.60;0.40;;;;;;;19.08;49.64;99820.44;4953205;28;20386;-63
2023/03/24 04:36:49;;;;;;;1.95;0.88;;;;;;;19.05;49.50;99820.03;4952477;28;20039;-63
2023/03/24 04:39:27;;;;;;;5.03;0.68;;;;;;;19.00;48.85;99838.81;4952443;28;20035;-63
2023/03/24 04:41:55;;;;;;;2.05;0.65;;;;;;;18.97;48.96;99836.53;4952474;28;20031;-63
2023/03/24 04:44:21;;;;;;;2.28;0.40;;;;;;;18.93;49.22;99860.53;4952506;28;20417;-63
2023/03/24 04:46:52;;;;;;;2.13;0.32;;;;;;;18.85;48.73;99855.28;4936480;28;20035;-63
2023/03/24 04:49:23;;;;;;;0.47;0.30;;;;;;;18.79;48.78;99858.00;4952167;28;20032;-63
2023/03/24 04:51:50;;;;;;;2.60;0.40;;;;;;;18.76;48.98;99859.22;4953172;28;20047;-63
2023/03/24 04:54:16;;;;;;;4.25;0.57;;;;;;;18.76;49.03;99859.22;4953513;28;20502;-63
2023/03/24 04:56:52;;;;;;;1.58;0.57;;;;;;;18.75;48.64;99863.00;4967909;28;20502;-63
2023/03/24 04:59:18;;;;;;;2.38;0.93;;;;;;;18.73;48.86;99875.09;4951951;28;20062;-63
2023/03/24 05:01:50;;;;;;;1.00;0.40;;;;;;;18.69;48.48;99874.69;4953224;28;20402;-62
2023/03/24 05:04:22;;;;;;;3.60;0.40;;;;;;;18.66;48.74;99872.38;4953322;28;20027;-65
2023/03/24 05:06:51;;;;;;;0.40;0.20;;;;;;;18.64;48.22;99879.88;4932844;28;20289;-64
2023/03/24 05:09:17;;;;;;;3.75;0.60;;;;;;;18.63;48.64;99880.06;4936492;29;20437;-65
2023/03/24 05:11:44;;;;;;;2.58;0.60;;;;;;;18.58;48.30;99877.97;4936016;28;20035;-64
2023/03/24 05:14:09;;;;;;;1.85;0.70;;;;;;;18.58;48.25;99894.25;4935907;29;20081;-64
2023/03/24 05:16:35;;;;;;;2.95;0.40;;;;;;;18.57;48.52;99898.00;4936099;28;20035;-65
2023/03/24 05:19:01;;;;;;;1.20;0.43;;;;;;;18.54;47.93;99903.84;4936644;29;20085;-65
2023/03/24 05:21:26;;;;;;;0.93;0.43;;;;;;;18.52;48.35;99903.22;4936191;28;20046;-64
2023/03/24 05:23:57;;;;;;;2.90;0.30;;;;;;;18.52;48.33;99905.91;4954666;28;20042;-65
2023/03/24 05:26:25;;;;;;;2.10;0.52;;;;;;;18.49;48.65;99903.59;4923056;28;20495;-64
2023/03/24 05:28:51;;;;;;;5.70;0.50;;;;;;;18.50;47.99;99908.84;4936373;28;20063;-62
2023/03/24 05:31:16;;;;;;;1.45;0.22;;;;;;;18.50;48.38;99918.84;4954383;28;20093;-64
2023/03/24 05:33:42;;;;;;;3.65;0.45;;;;;;;18.46;48.42;99928.38;4953356;28;20036;-64
2023/03/24 05:36:08;;;;;;;1.98;0.30;;;;;;;18.39;47.52;99928.38;4936139;28;20058;-64
2023/03/24 05:38:33;;;;;;;2.45;0.63;;;;;;;18.35;48.49;99937.94;4936308;28;20043;-64
2023/03/24 05:40:59;;;;;;;6.78;0.40;;;;;;;18.27;48.37;99942.69;4936251;28;20039;-65
2023/03/24 05:43:25;;;;;;;7.40;1.13;;;;;;;18.21;48.18;99941.63;4951971;28;20027;-64
2023/03/24 05:45:51;;;;;;;5.35;0.50;;;;;;;18.18;47.48;99935.75;4953347;28;20102;-65
2023/03/24 05:48:16;;;;;;;4.55;0.73;;;;;;;18.14;48.11;99935.34;4935977;28;20040;-65
2023/03/24 05:50:42;;;;;;;12.25;1.02;;;;;;;18.10;47.62;99930.50;4935760;28;20047;-64
2023/03/24 05:53:07;;;;;;;2.03;0.52;;;;;;;18.09;48.39;99937.78;4967477;28;20398;-64
2023/03/24 05:55:34;;;;;;;1.70;0.38;;;;;;;18.08;47.53;99940.72;4951459;28;20031;-65
2023/03/24 05:58:00;;;;;;;2.67;0.73;;;;;;;18.02;47.74;99947.75;4952068;28;20059;-64
2023/03/24 06:00:27;;;;;;;2.20;0.55;;;;;;;18.01;47.77;99941.50;4951126;28;20110;-65
2023/03/24 06:02:53;;;;;;;5.43;0.57;;;;;;;18.00;48.07;99953.41;4950648;28;20035;-64
2023/03/24 06:05:19;;;;;;;3.08;0.75;;;;;;;17.97;47.11;99953.78;4935277;28;20462;-65
2023/03/24 06:07:44;;;;;;;2.47;0.52;;;;;;;17.95;47.82;99953.13;4951386;28;20104;-64
2023/03/24 06:10:13;;;;;;;1.45;0.50;;;;;;;17.94;47.08;99954.19;4952681;28;20027;-64
2023/03/24 06:12:39;;;;;;;4.75;1.10;;;;;;;17.93;47.79;99967.91;4935678;29;20046;-64
2023/03/24 06:15:06;;;;;;;4.10;1.00;;;;;;;17.93;47.80;99976.03;4950975;28;20032;-65
2023/03/24 06:17:31;;;;;;;4.93;1.00;;;;;;;18.10;46.41;99979.28;4935226;28;20114;-64
2023/03/24 06:20:01;;;;;;;6.05;1.20;;;;;;;18.27;47.55;99986.06;4950776;28;20036;-65
2023/03/24 06:22:28;;;;;;;3.50;0.75;;;;;;;18.35;46.49;99986.75;4951947;28;20035;-64
2023/03/24 06:24:55;;;;;;;5.65;0.95;;;;;;;18.49;46.53;99987.69;4935156;29;20027;-65
2023/03/24 06:27:24;;;;;;;6.18;1.30;;;;;;;18.68;46.28;99986.94;4951433;28;20035;-65
2023/03/24 06:29:52;;;;;;;6.50;1.75;;;;;;;18.85;46.42;99982.84;4937752;28;20058;-64
2023/03/24 06:32:18;;;;;;;11.32;1.40;;;;;;;18.91;46.48;99976.59;4951158;28;20039;-65
2023/03/24 06:34:44;;;;;;;9.82;1.33;;;;;;;18.98;45.61;99977.44;4919497;28;20039;-63
2023/03/24 06:37:09;;;;;;;3.22;1.05;;;;;;;19.10;45.85;99970.38;4952487;28;20043;-63
2023/03/24 06:39:34;;;;;;;15.98;2.17;;;;;;;19.35;45.59;99977.94;4950939;28;20043;-62
2023/03/24 06:42:00;;;;;;;3.15;1.13;;;;;;;19.45;45.30;99981.16;4950906;28;20047;-63
2023/03/24 06:44:26;;;;;;;10.68;1.95;;;;;;;19.66;45.14;99975.50;4934925;28;20534;-63
2023/03/24 06:46:51;;;;;;;6.50;1.33;;;;;;;19.84;45.48;99970.28;4963725;28;20066;-62
2023/03/24 06:49:17;;;;;;;6.10;1.70;;;;;;;19.92;45.71;99974.66;4931975;29;20395;-63
2023/03/24 06:51:42;;;;;;;5.05;2.70;;;;;;;19.89;44.98;99975.94;4931564;28;20066;-63
2023/03/24 06:54:08;;;;;;;6.10;1.65;;;;;;;20.19;44.99;99985.31;4916100;28;20047;-63
2023/03/24 06:56:33;;;;;;;3.55;1.30;;;;;;;20.41;44.38;99987.81;4931842;29;20039;-64
2023/03/24 06:58:59;;;;;;;8.00;1.45;;;;;;;20.47;44.25;99984.22;4931632;28;20048;-65
2023/03/24 07:01:25;;;;;;;8.80;1.27;;;;;;;20.63;44.66;99987.31;4931338;28;20560;-66
2023/03/24 07:03:50;;;;;;;8.05;1.33;;;;;;;20.68;43.99;99975.78;4900453;28;20039;-64
2023/03/24 07:06:18;;;;;;;2.90;1.02;;;;;;;20.83;43.92;99976.34;4931464;28;20414;-66
2023/03/24 07:08:44;;;;;;;5.35;1.90;;;;;;;20.72;44.58;99983.28;4931404;28;20046;-66
2023/03/24 07:11:10;;;;;;;4.35;0.95;;;;;;;20.64;44.34;99988.97;4931323;28;20118;-65
2023/03/24 07:13:35;;;;;;;3.58;1.30;;;;;;;20.85;43.82;99993.31;4917848;28;20024;-66
2023/03/24 07:16:01;;;;;;;7.07;1.00;;;;;;;20.99;43.33;99992.19;4934951;28;20064;-66
2023/03/24 07:18:27;;;;;;;8.73;1.05;;;;;;;21.15;43.32;99997.16;4950342;28;20055;-66
2023/03/24 07:20:52;;;;;;;7.78;1.05;;;;;;;21.30;43.74;100008.59;4950873;28;20046;-66
2023/03/24 07:23:18;;;;;;;2.60;0.95;;;;;;;21.46;43.58;100019.00;4918543;28;20043;-66
2023/03/24 07:25:43;;;;;;;7.32;1.23;;;;;;;21.67;42.67;100027.84;4903036;28;20035;-67
2023/03/24 07:28:09;;;;;;;6.55;0.85;;;;;;;21.87;42.88;100032.13;4919132;29;20027;-66
2023/03/24 07:30:35;;;;;;;7.20;1.38;;;;;;;21.95;43.09;100031.84;4934276;28;20106;-65
2023/03/24 07:33:02;;;;;;;6.38;0.93;;;;;;;22.00;42.83;100040.22;4934130;28;20039;-66
2023/03/24 07:35:28;;;;;;;14.32;1.90;;;;;;;22.22;42.95;100031.66;4934767;28;20038;-67
2023/03/24 07:37:57;;;;;;;4.28;1.20;;;;;;;22.29;42.81;100035.97;4934541;29;20114;-66
2023/03/24 07:40:23;;;;;;;9.63;1.45;;;;;;;22.40;42.66;100028.94;4933674;28;20085;-64
2023/03/24 07:42:49;;;;;;;3.42;1.00;;;;;;;22.45;42.54;100040.00;4936943;28;20036;-65
2023/03/24 07:45:14;;;;;;;6.20;1.08;;;;;;;22.24;42.49;100044.00;4950216;28;20039;-65
2023/03/24 07:47:43;;;;;;;5.00;1.15;;;;;;;22.19;42.35;100041.13;4934131;28;20092;-65
2023/03/24 07:50:09;;;;;;;6.05;0.95;;;;;;;22.08;42.75;100039.13;4934848;29;20557;-64
2023/03/24 07:52:42;;;;;;;6.30;1.02;;;;;;;21.97;41.90;100045.28;4918219;28;20032;-65
2023/03/24 07:55:10;;;;;;;4.22;1.20;;;;;;;21.81;42.76;100054.81;4918170;29;20440;-64
2023/03/24 07:57:36;;;;;;;10.32;1.60;;;;;;;21.77;42.60;100052.75;4918090;29;20495;-65
2023/03/24 08:00:18;;;;;;;7.00;1.20;;;;;;;21.82;42.08;100064.66;4917825;28;20071;-65
2023/03/24 08:02:48;;;;;;;4.07;1.30;;;;;;;21.69;42.96;100061.19;4948354;28;20077;-65
2023/03/24 08:05:14;;;;;;;8.00;1.48;;;;;;;21.63;42.65;100062.06;4918516;28;20028;-65
2023/03/24 08:07:43;;;;;;;9.95;1.58;;;;;;;21.95;41.99;100070.03;4934170;28;20031;-65
2023/03/24 08:10:12;;;;;;;6.80;1.10;;;;;;;21.90;42.25;100069.88;4933604;28;20047;-65
2023/03/24 08:12:38;;;;;;;5.45;1.10;;;;;;;21.98;41.79;100066.88;4918195;29;20452;-65
2023/03/24 08:15:06;;;;;;;4.43;1.17;;;;;;;21.93;41.82;100066.72;4902541;28;20115;-65
2023/03/24 08:17:32;;;;;;;5.80;1.40;;;;;;;22.33;41.80;100055.47;4918458;28;20027;-65
2023/03/24 08:19:58;;;;;;;6.22;1.25;;;;;;;22.48;41.51;100054.03;4918396;28;20035;-65
2023/03/24 08:22:23;;;;;;;4.90;2.20;;;;;;;22.81;41.24;100063.81;4918053;28;20031;-65
2023/03/24 08:24:48;;;;;;;4.63;1.30;;;;;;;23.08;40.62;100056.97;4932720;28;20040;-64
2023/03/24 08:27:15;;;;;;;5.65;1.00;;;;;;;23.31;39.89;100057.06;4917524;28;20036;-65
2023/03/24 08:29:41;;;;;;;5.88;1.50;;;;;;;23.59;40.17;100054.59;4933387;28;20110;-65
2023/03/24 08:32:06;;;;;;;10.10;1.70;;;;;;;23.82;40.34;100053.00;4934998;29;20555;-65
2023/03/24 08:34:32;;;;;;;7.22;1.40;;;;;;;24.06;39.80;100071.16;4933369;28;20035;-65
2023/03/24 08:36:57;;;;;;;2.13;1.02;;;;;;;24.35;39.39;100062.06;4917534;29;20400;-66
2023/03/24 08:39:23;;;;;;;7.55;1.83;;;;;;;24.51;39.22;100057.78;4934166;28;20380;-66
2023/03/24 08:41:49;;;;;;;8.15;1.70;;;;;;;24.77;39.10;100069.06;4933259;29;20110;-65
2023/03/24 08:44:14;;;;;;;8.80;1.80;;;;;;;24.68;38.67;100069.69;4917485;28;20111;-65
2023/03/24 08:46:40;;;;;;;5.07;1.65;;;;;;;24.84;38.66;100078.03;4935919;29;20170;-66
2023/03/24 08:49:05;;;;;;;9.07;1.40;;;;;;;24.69;38.65;100072.16;4936130;28;20509;-65
2023/03/24 08:51:31;;;;;;;4.97;1.20;;;;;;;24.56;38.66;100088.88;4953481;28;20039;-65
2023/03/24 08:53:56;;;;;;;10.00;2.03;;;;;;;24.29;39.17;100093.94;4936183;29;20038;-65
2023/03/24 08:56:22;;;;;;;5.63;1.40;;;;;;;23.93;39.31;100093.25;4953509;28;20030;-65
2023/03/24 08:58:50;;;;;;;4.50;1.30;;;;;;;23.59;39.66;100098.38;4952814;29;20032;-66
2023/03/24 09:01:19;;;;;;;7.70;1.70;;;;;;;23.35;39.31;100099.31;4936108;29;20439;-65
2023/03/24 09:03:45;;;;;;;8.88;1.90;;;;;;;23.16;39.64;100086.72;4936045;29;20085;-65
2023/03/24 09:06:10;;;;;;;7.00;1.95;;;;;;;23.43;39.72;100101.75;4952034;28;20035;-65
2023/03/24 09:08:36;;;;;;;5.55;1.65;;;;;;;23.59;39.12;100095.63;4953058;28;20034;-65
2023/03/24 09:11:02;;;;;;;6.50;1.35;;;;;;;24.10;38.89;100099.75;4952259;28;20038;-65
2023/03/24 09:13:27;;;;;;;5.63;1.35;;;;;;;24.10;39.05;100099.75;4967878;28;20032;-65
2023/03/24 09:15:57;;;;;;;4.57;1.88;;;;;;;24.10;38.63;100103.31;4951722;28;20042;-65
2023/03/24 09:18:22;;;;;;;5.82;1.10;;;;;;;24.12;39.10;100098.44;4952026;28;20038;-65
2023/03/24 09:20:48;;;;;;;9.45;1.23;;;;;;;24.53;37.21;100100.28;4920075;29;20032;-65
2023/03/24 09:23:14;;;;;;;3.70;1.17;;;;;;;24.70;37.61;100101.25;4951742;28;20347;-65
2023/03/24 09:25:39;;;;;;;6.35;1.05;;;;;;;24.39;37.69;100100.75;4952381;29;20050;-65
2023/03/24 09:28:06;;;;;;;4.15;1.25;;;;;;;24.48;37.92;100097.44;4919933;29;20040;-65
2023/03/24 09:30:32;;;;;;;3.85;1.13;;;;;;;25.01;37.04;100096.47;4935725;29;20480;-65
2023/03/24 09:32:58;;;;;;;6.47;1.30;;;;;;;25.13;37.15;100100.00;4951546;28;20031;-65
2023/03/24 09:35:26;;;;;;;7.30;1.08;;;;;;;25.50;36.68;100100.53;4951342;28;20034;-65
2023/03/24 09:37:51;;;;;;;1.50;1.25;;;;;;;25.84;36.02;100096.81;4951869;29;20526;-66
2023/03/24 09:40:23;;;;;;;5.38;1.38;;;;;;;26.21;35.92;100105.47;4952491;28;20161;-66
2023/03/24 09:42:56;;;;;;;8.57;1.27;;;;;;;26.21;36.12;100094.47;4951454;28;20040;-65
2023/03/24 09:45:23;;;;;;;3.03;1.40;;;;;;;26.68;35.57;100104.03;4935314;29;20039;-66
2023/03/24 09:47:52;;;;;;;8.52;1.50;;;;;;;27.73;35.09;100092.78;4947916;28;20028;-66
2023/03/24 09:50:27;;;;;;;3.75;1.13;;;;;;;29.53;31.86;100108.22;4931983;28;20027;-66
2023/03/24 09:52:57;;;;;;;6.45;1.00;;;;;;;28.25;33.73;100099.34;4916622;28;20035;-66
2023/03/24 09:55:25;;;;;;;3.85;1.10;;;;;;;27.50;34.66;100102.16;4932056;28;20507;-66
2023/03/24 09:57:52;;;;;;;11.35;1.98;;;;;;;27.12;35.20;100110.44;4931846;28;20036;-65
2023/03/24 10:00:23;;;;;;;3.42;1.35;;;;;;;26.61;35.23;100119.84;4933184;28;20059;-65
2023/03/24 10:02:50;;;;;;;4.85;1.42;;;;;;;26.50;35.14;100118.84;4930944;29;20034;-65
2023/03/24 10:05:47;;;;;;;4.10;1.13;;;;;;;26.07;35.60;100128.78;4931873;28;20399;-65
2023/03/24 10:08:49;;;;;;;3.58;0.65;;;;;;;25.67;35.67;100124.22;4948141;29;20063;-64
2023/03/24 10:11:29;;;;;;;2.25;0.85;;;;;;;25.40;35.31;100128.56;4931779;29;20040;-64
2023/03/24 10:14:07;;;;;;;1.80;0.63;;;;;;;25.04;35.92;100137.13;4948134;29;20059;-64
2023/03/24 10:16:48;;;;;;;12.00;1.20;;;;;;;24.67;36.42;100134.59;4931751;28;20044;-64
2023/03/24 10:19:19;;;;;;;4.80;0.80;;;;;;;24.54;36.71;100137.53;4915927;28;20040;-64
2023/03/24 10:21:54;;;;;;;4.22;0.85;;;;;;;25.24;35.44;100132.03;4932987;28;20518;-64
2023/03/24 10:24:47;;;;;;;8.02;0.98;;;;;;;26.65;33.82;100123.78;4915720;29;20064;-65
2023/03/24 10:27:25;;;;;;;5.72;1.10;;;;;;;26.11;35.09;100121.72;4932474;28;20126;-64
2023/03/24 10:29:54;;;;;;;9.70;1.10;;;;;;;25.51;35.52;100122.25;4931425;28;20417;-64
2023/03/24 10:32:25;;;;;;;6.43;1.35;;;;;;;25.29;35.54;100121.22;4931659;28;20036;-64
2023/03/24 10:34:54;;;;;;;6.88;1.23;;;;;;;24.96;35.66;100112.81;4947862;29;20065;-64
2023/03/24 10:37:20;;;;;;;7.13;1.35;;;;;;;24.86;35.84;100127.94;4931595;28;20047;-64
2023/03/24 10:39:46;;;;;;;4.75;1.17;;;;;;;24.96;35.30;100121.84;4941979;28;20035;-64
2023/03/24 10:42:15;;;;;;;2.63;1.40;;;;;;;24.78;35.23;100120.06;4934836;28;20040;-64
2023/03/24 10:44:41;;;;;;;5.68;1.13;;;;;;;24.63;35.61;100122.44;4950584;28;20555;-64
2023/03/24 10:47:09;;;;;;;7.88;1.80;;;;;;;24.44;36.07;100111.81;4951390;28;20035;-64
2023/03/24 10:49:35;;;;;;;4.45;1.83;;;;;;;24.25;36.07;100109.19;4954158;28;20444;-63
2023/03/24 10:52:02;;;;;;;6.13;1.02;;;;;;;24.00;36.45;100105.78;4938024;28;20558;-64
2023/03/24 10:54:30;;;;;;;5.32;1.08;;;;;;;23.76;36.68;100113.06;4938383;28;20032;-64
2023/03/24 10:56:59;;;;;;;5.55;1.30;;;;;;;23.61;36.00;100118.13;4938133;28;20081;-64
2023/03/24 10:59:30;;;;;;;6.90;1.23;;;;;;;23.58;36.30;100118.59;4953769;28;20027;-64
2023/03/24 11:02:17;;;;;;;2.50;1.20;;;;;;;23.56;36.62;100115.22;4954581;28;20027;-64
2023/03/24 11:04:49;;;;;;;4.07;1.08;;;;;;;23.35;36.54;100117.59;4955140;28;20430;-64
2023/03/24 11:07:19;;;;;;;6.88;1.27;;;;;;;23.30;36.85;100118.28;4938051;29;20042;-64
2023/03/24 11:09:55;;;;;;;4.82;1.30;;;;;;;23.78;35.98;100124.59;4953826;28;20043;-64
2023/03/24 11:12:24;;;;;;;6.45;1.63;;;;;;;23.63;36.34;100126.94;4937676;28;20593;-64
2023/03/24 11:14:52;;;;;;;5.90;1.38;;;;;;;23.80;36.78;100132.59;4953458;28;20446;-65
2023/03/24 11:17:19;;;;;;;2.40;1.10;;;;;;;23.77;36.50;100133.88;4953506;28;20065;-64
2023/03/24 11:19:52;;;;;;;4.88;1.65;;;;;;;24.16;35.50;100127.03;4938098;29;20060;-64
2023/03/24 11:22:17;;;;;;;;;;;;;;;24.17;36.05;100134.19;4953782;28;20043;-64
2023/03/24 11:24:51;;;;;;;4.10;0.90;;;;;;;24.35;35.87;100127.75;4953415;28;19918;-64
2023/03/24 11:27:17;;;;;;;5.13;1.10;;;;;;;24.37;35.46;100133.03;4953395;28;20028;-64
2023/03/24 11:29:47;;;;;;;5.53;0.73;;;;;;;24.32;35.91;100131.81;4937307;28;20043;-64
2023/03/24 11:32:20;;;;;;;8.32;1.08;;;;;;;24.63;35.72;100127.91;4953832;29;20030;-64
2023/03/24 11:34:49;;;;;;;7.28;1.08;;;;;;;24.61;35.00;100121.84;4937541;29;20035;-64
2023/03/24 11:37:20;;;;;;;5.72;1.25;;;;;;;24.43;35.38;100121.94;4953446;28;20502;-64
2023/03/24 11:40:14;;;;;;;6.32;1.02;;;;;;;24.33;35.30;100117.06;4953465;28;20102;-64
2023/03/24 11:42:53;;;;;;;5.95;1.10;;;;;;;24.30;35.62;100128.47;4937691;29;20053;-64
2023/03/24 11:45:19;;;;;;;2.20;1.23;;;;;;;24.72;34.97;100129.22;4953163;28;20043;-64